Time;durP1;ratioP1;P1;durP2;ratioP2;P2;SDS_P1;SDS_P2;PMS_P1;PMS_P2;Temp;Humidity;BMP_temperature;BMP_pressure;BME280_temperature;BME280_humidity;BME280_pressure;Samples;Min_cycle;Max_cycle;Signal;HPM_P1;HPM_P2
2022/01/09 00:00:11;;;;;;;15.67;9.37;;;;;;;4.94;100.00;91455.47;4979690;28;20626;-74
2022/01/09 00:02:40;;;;;;;14.13;9.87;;;;;;;5.06;100.00;91474.16;4979166;28;20627;-74
2022/01/09 00:05:09;;;;;;;15.50;9.07;;;;;;;4.95;100.00;91456.28;4979716;28;20559;-74
2022/01/09 00:07:37;;;;;;;11.40;9.10;;;;;;;5.05;100.00;91470.03;4978912;28;20586;-74
2022/01/09 00:10:05;;;;;;;10.30;7.73;;;;;;;4.98;100.00;91464.47;4980089;28;20499;-74
2022/01/09 00:12:32;;;;;;;9.93;8.93;;;;;;;5.03;100.00;91461.75;4979511;28;20480;-75
2022/01/09 00:14:59;;;;;;;22.30;10.60;;;;;;;5.10;100.00;91475.66;4978763;28;20484;-74
2022/01/09 00:17:27;;;;;;;11.33;9.27;;;;;;;5.19;100.00;91470.28;4978926;28;20556;-74
2022/01/09 00:19:55;;;;;;;10.97;9.97;;;;;;;5.17;100.00;91471.22;4978429;28;20294;-74
2022/01/09 00:22:33;;;;;;;14.47;9.83;;;;;;;5.23;100.00;91484.31;4978454;28;20196;-74
2022/01/09 00:25:00;;;;;;;11.93;8.37;;;;;;;5.19;100.00;91481.97;4978374;28;20712;-74
2022/01/09 00:27:27;;;;;;;17.10;9.07;;;;;;;5.04;100.00;91470.09;4978900;28;20219;-74
2022/01/09 00:29:55;;;;;;;14.30;8.80;;;;;;;5.04;100.00;91473.41;4978590;28;20641;-74
2022/01/09 00:32:22;;;;;;;9.87;8.73;;;;;;;4.96;100.00;91478.72;4978609;28;20238;-75
2022/01/09 00:34:49;;;;;;;17.13;10.23;;;;;;;5.00;100.00;91475.22;4958734;28;20549;-74
2022/01/09 00:37:18;;;;;;;11.73;8.90;;;;;;;5.08;100.00;91479.91;4969936;28;20450;-74
2022/01/09 00:39:45;;;;;;;14.87;7.03;;;;;;;5.12;100.00;91475.63;4978468;28;20484;-74
2022/01/09 00:42:12;;;;;;;16.80;7.17;;;;;;;5.05;100.00;91456.72;4978001;28;20570;-74
2022/01/09 00:44:40;;;;;;;6.63;5.83;;;;;;;5.11;100.00;91453.94;4978531;28;20556;-75
2022/01/09 00:47:07;;;;;;;15.33;8.67;;;;;;;5.06;100.00;91459.16;4976772;28;20536;-75
2022/01/09 00:49:35;;;;;;;6.83;6.17;;;;;;;5.06;100.00;91460.84;4978124;28;20477;-74
2022/01/09 00:52:02;;;;;;;6.13;5.73;;;;;;;5.03;100.00;91448.44;4978279;28;20608;-75
2022/01/09 00:54:31;;;;;;;5.03;4.67;;;;;;;5.04;100.00;91435.06;4978353;28;20460;-74
2022/01/09 00:56:58;;;;;;;8.27;7.47;;;;;;;4.98;100.00;91443.63;4978487;28;20204;-74
2022/01/09 00:59:25;;;;;;;14.07;6.27;;;;;;;4.82;100.00;91433.44;4978047;28;20578;-75
2022/01/09 01:01:53;;;;;;;8.10;6.70;;;;;;;4.94;100.00;91437.94;4978922;28;20195;-74
2022/01/09 01:04:20;;;;;;;6.97;6.47;;;;;;;4.95;100.00;91428.75;4977652;28;20227;-74
2022/01/09 01:06:49;;;;;;;14.27;7.30;;;;;;;4.98;100.00;91431.94;4978354;28;20277;-74
2022/01/09 01:09:16;;;;;;;6.87;5.90;;;;;;;4.85;100.00;91408.28;4978160;28;20556;-74
2022/01/09 01:11:45;;;;;;;8.13;6.90;;;;;;;5.04;100.00;91430.88;4978800;28;20681;-74
2022/01/09 01:14:12;;;;;;;7.80;6.77;;;;;;;5.01;100.00;91431.00;4978768;28;20616;-74
2022/01/09 01:16:40;;;;;;;6.23;5.67;;;;;;;4.93;100.00;91426.31;4978067;28;20230;-74
2022/01/09 01:19:07;;;;;;;4.83;4.40;;;;;;;4.74;100.00;91409.59;4978585;28;20543;-74
2022/01/09 01:21:35;;;;;;;5.73;5.27;;;;;;;4.73;100.00;91416.28;4977790;28;20531;-74
2022/01/09 01:24:03;;;;;;;7.73;5.50;;;;;;;4.59;100.00;91413.53;4977249;28;20191;-74
2022/01/09 01:26:30;;;;;;;9.90;6.43;;;;;;;4.52;100.00;91420.44;4977308;28;20592;-74
2022/01/09 01:28:59;;;;;;;12.07;7.33;;;;;;;4.53;100.00;91407.06;4978341;28;20530;-74
2022/01/09 01:31:26;;;;;;;14.63;7.13;;;;;;;4.35;100.00;91394.47;4977225;28;20584;-74
2022/01/09 01:33:53;;;;;;;8.33;6.77;;;;;;;4.10;100.00;91372.97;4978113;28;20462;-74
2022/01/09 01:36:22;;;;;;;12.50;7.40;;;;;;;4.18;100.00;91403.44;4978392;28;20484;-74
2022/01/09 01:38:49;;;;;;;9.27;6.57;;;;;;;4.18;100.00;91402.63;4977132;28;20211;-74
2022/01/09 01:41:17;;;;;;;12.57;5.67;;;;;;;4.30;100.00;91394.66;4977452;28;20444;-74
2022/01/09 01:43:44;;;;;;;8.20;7.33;;;;;;;4.32;100.00;91392.09;4977453;28;20588;-74
2022/01/09 01:46:13;;;;;;;4.53;4.23;;;;;;;4.31;100.00;91397.97;4977708;28;20562;-74
2022/01/09 01:48:40;;;;;;;7.67;6.83;;;;;;;4.27;100.00;91387.28;4977132;28;20603;-74
2022/01/09 01:51:08;;;;;;;5.97;5.63;;;;;;;4.43;100.00;91392.50;4978490;28;20226;-74
2022/01/09 01:53:35;;;;;;;14.63;7.13;;;;;;;4.42;100.00;91395.88;4977028;28;20643;-74
2022/01/09 01:56:02;;;;;;;11.43;7.23;;;;;;;4.25;100.00;91389.03;4976769;28;20481;-73
2022/01/09 01:58:34;;;;;;;9.90;5.80;;;;;;;4.30;100.00;91386.34;4976926;28;20489;-73
2022/01/09 02:01:02;;;;;;;11.47;6.93;;;;;;;4.31;100.00;91386.28;4977360;28;20480;-74
2022/01/09 02:03:31;;;;;;;5.30;4.83;;;;;;;4.30;100.00;91384.66;4976748;28;20484;-74
2022/01/09 02:05:59;;;;;;;6.53;6.03;;;;;;;4.35;100.00;91384.47;4978541;28;20626;-74
2022/01/09 02:08:26;;;;;;;7.47;5.87;;;;;;;4.31;100.00;91383.78;4976614;28;20547;-74
2022/01/09 02:10:53;;;;;;;10.73;7.47;;;;;;;4.33;100.00;91383.75;4957619;28;20196;-74
2022/01/09 02:13:21;;;;;;;13.63;6.10;;;;;;;4.17;100.00;91386.81;4957200;28;20480;-74
2022/01/09 02:15:49;;;;;;;7.63;7.07;;;;;;;4.16;100.00;91379.41;4969000;28;20589;-74
2022/01/09 02:18:17;;;;;;;25.33;8.80;;;;;;;4.02;100.00;91364.13;4976204;28;20626;-74
2022/01/09 02:20:47;;;;;;;11.33;8.10;;;;;;;4.04;100.00;91363.19;4976782;28;20552;-74
2022/01/09 02:23:16;;;;;;;9.97;6.07;;;;;;;4.22;100.00;91364.16;4976781;28;20520;-74
2022/01/09 02:25:44;;;;;;;8.50;5.50;;;;;;;4.18;100.00;91343.47;4977061;28;20192;-74
2022/01/09 02:28:13;;;;;;;7.37;4.27;;;;;;;4.24;100.00;91327.41;4976498;28;20526;-74
2022/01/09 02:30:44;;;;;;;10.63;5.20;;;;;;;4.36;100.00;91336.13;4977314;28;20192;-74
2022/01/09 02:33:15;;;;;;;14.43;4.80;;;;;;;4.49;100.00;91342.25;4976974;28;20535;-74
2022/01/09 02:35:43;;;;;;;15.43;6.20;;;;;;;4.51;100.00;91330.47;4976892;28;20595;-74
2022/01/09 02:38:12;;;;;;;8.87;5.00;;;;;;;4.45;100.00;91334.03;4976747;28;20576;-74
2022/01/09 02:40:39;;;;;;;3.80;3.60;;;;;;;4.44;100.00;91329.94;4976716;28;20469;-74
2022/01/09 02:43:06;;;;;;;7.37;4.77;;;;;;;4.34;100.00;91330.38;4976219;28;20588;-74
2022/01/09 02:45:33;;;;;;;4.63;4.23;;;;;;;4.24;100.00;91334.09;4976332;28;20457;-74
2022/01/09 02:48:02;;;;;;;4.53;3.80;;;;;;;4.02;100.00;91321.63;4975897;28;20501;-74
2022/01/09 02:50:37;;;;;;;4.30;3.97;;;;;;;3.96;100.00;91332.69;4976171;28;20539;-74
2022/01/09 02:53:15;;;;;;;4.63;4.23;;;;;;;3.89;100.00;91323.00;4976485;28;20615;-74
2022/01/09 02:55:44;;;;;;;5.07;3.07;;;;;;;4.04;100.00;91328.22;4975669;28;20207;-74
2022/01/09 02:58:12;;;;;;;4.30;4.03;;;;;;;4.06;100.00;91311.47;4975694;28;20646;-74
2022/01/09 03:00:42;;;;;;;4.83;4.40;;;;;;;4.06;100.00;91308.97;4975389;28;20207;-74
2022/01/09 03:03:09;;;;;;;4.53;3.63;;;;;;;4.04;100.00;91300.72;4976797;28;20195;-74
2022/01/09 03:05:37;;;;;;;3.93;3.70;;;;;;;4.25;100.00;91316.56;4975889;28;20599;-74
2022/01/09 03:08:05;;;;;;;5.60;4.07;;;;;;;4.25;100.00;91314.06;4976943;28;20558;-74
2022/01/09 03:10:32;;;;;;;5.00;4.47;;;;;;;4.30;100.00;91316.34;4976285;28;20502;-74
2022/01/09 03:13:03;;;;;;;4.70;4.40;;;;;;;4.22;100.00;91306.69;4975601;28;20495;-74
2022/01/09 03:15:31;;;;;;;3.57;3.37;;;;;;;4.27;100.00;91329.00;4976304;28;20591;-74
2022/01/09 03:17:58;;;;;;;5.50;5.03;;;;;;;4.20;100.00;91312.59;4976779;28;20239;-74
2022/01/09 03:20:27;;;;;;;5.30;4.87;;;;;;;4.15;100.00;91303.63;4976415;28;20572;-74
2022/01/09 03:22:54;;;;;;;6.03;5.20;;;;;;;4.18;100.00;91318.47;4975640;28;20496;-74
2022/01/09 03:25:22;;;;;;;5.50;5.07;;;;;;;4.20;100.00;91308.44;4976364;28;20665;-74
2022/01/09 03:27:49;;;;;;;9.60;5.57;;;;;;;4.25;100.00;91324.06;4975753;28;20492;-74
2022/01/09 03:30:20;;;;;;;11.07;4.90;;;;;;;4.31;100.00;91325.50;4975568;28;20599;-74
2022/01/09 03:32:48;;;;;;;5.97;5.40;;;;;;;4.23;100.00;91327.47;4976334;28;20618;-74
2022/01/09 03:35:17;;;;;;;8.00;5.13;;;;;;;4.33;100.00;91317.06;4975963;28;20504;-74
2022/01/09 03:37:46;;;;;;;9.70;4.87;;;;;;;4.27;100.00;91307.31;4976855;28;20465;-74
2022/01/09 03:40:18;;;;;;;7.40;4.93;;;;;;;4.23;100.00;91300.78;4975885;28;20337;-74
2022/01/09 03:42:46;;;;;;;12.50;5.00;;;;;;;4.31;100.00;91313.00;4975648;28;20561;-74
2022/01/09 03:45:13;;;;;;;4.73;4.20;;;;;;;4.29;100.00;91310.53;4975568;28;20290;-74
2022/01/09 03:47:42;;;;;;;8.10;4.47;;;;;;;4.37;100.00;91305.25;4975987;28;20577;-74
2022/01/09 03:50:12;;;;;;;4.63;3.97;;;;;;;4.33;100.00;91299.56;4975050;28;20569;-74
2022/01/09 03:52:41;;;;;;;9.63;5.17;;;;;;;4.35;100.00;91282.00;4975448;28;20592;-74
2022/01/09 03:55:10;;;;;;;16.67;8.67;;;;;;;4.24;100.00;91287.44;4976089;28;20473;-74
2022/01/09 03:57:38;;;;;;;10.97;5.83;;;;;;;4.17;100.00;91288.53;4975393;28;20591;-74
2022/01/09 04:00:08;;;;;;;9.30;4.73;;;;;;;4.23;100.00;91287.47;4975165;28;20635;-74
2022/01/09 04:02:36;;;;;;;5.70;5.23;;;;;;;4.22;100.00;91275.88;4975845;28;20227;-74
2022/01/09 04:05:05;;;;;;;4.87;4.47;;;;;;;4.26;100.00;91267.38;4976329;28;20465;-74
2022/01/09 04:07:32;;;;;;;4.87;4.47;;;;;;;4.08;100.00;91257.25;4975085;28;20610;-74
2022/01/09 04:10:00;;;;;;;8.73;5.17;;;;;;;4.25;100.00;91275.75;4975079;28;20592;-74
2022/01/09 04:12:34;;;;;;;9.63;5.70;;;;;;;4.06;100.00;91264.00;4976534;28;20618;-74
2022/01/09 04:15:05;;;;;;;10.77;5.47;;;;;;;4.17;100.00;91274.38;4975700;28;20454;-74
2022/01/09 04:17:43;;;;;;;4.30;4.00;;;;;;;4.18;100.00;91285.19;4976053;28;20195;-74
2022/01/09 04:20:13;;;;;;;4.37;4.00;;;;;;;4.03;100.00;91278.31;4979270;28;20573;-74
2022/01/09 04:22:41;;;;;;;4.90;4.37;;;;;;;4.15;100.00;91286.13;4978813;28;20541;-74
2022/01/09 04:25:10;;;;;;;6.37;5.77;;;;;;;4.02;100.00;91292.47;4978964;28;20603;-74
2022/01/09 04:27:38;;;;;;;5.43;4.37;;;;;;;3.95;100.00;91283.59;4979576;28;20489;-75
2022/01/09 04:30:06;;;;;;;7.07;6.30;;;;;;;4.00;100.00;91278.44;4978644;28;20486;-74
2022/01/09 04:32:34;;;;;;;10.67;6.50;;;;;;;4.01;100.00;91293.34;4979171;28;20595;-74
2022/01/09 04:35:02;;;;;;;5.23;4.40;;;;;;;4.05;100.00;91284.06;4978424;28;20529;-74
2022/01/09 04:37:33;;;;;;;6.10;4.50;;;;;;;3.90;100.00;91272.16;4978802;28;20593;-74
2022/01/09 04:40:00;;;;;;;4.90;3.90;;;;;;;4.00;100.00;91279.22;4978310;28;20520;-74
2022/01/09 04:42:34;;;;;;;4.97;4.67;;;;;;;4.07;100.00;91283.09;4978684;28;20568;-74
2022/01/09 04:45:01;;;;;;;5.80;4.10;;;;;;;3.93;100.00;91287.03;4977988;28;20489;-74
2022/01/09 04:47:28;;;;;;;5.63;4.93;;;;;;;3.69;100.00;91291.28;4979317;28;20254;-74
2022/01/09 04:49:55;;;;;;;5.00;4.57;;;;;;;3.53;100.00;91293.56;4978296;28;20208;-74
2022/01/09 04:52:27;;;;;;;4.67;4.37;;;;;;;3.64;100.00;91295.66;4978260;28;20191;-74
2022/01/09 04:54:56;;;;;;;5.77;4.93;;;;;;;3.64;100.00;91296.47;4978918;28;20572;-75
2022/01/09 04:57:23;;;;;;;7.57;4.93;;;;;;;3.75;100.00;91288.56;4978567;28;20642;-74
2022/01/09 04:59:50;;;;;;;7.87;5.40;;;;;;;3.95;100.00;91288.59;4977962;28;20231;-74
2022/01/09 05:02:17;;;;;;;10.83;7.13;;;;;;;3.98;100.00;91271.00;4977596;28;20599;-74
2022/01/09 05:04:45;;;;;;;6.87;6.30;;;;;;;4.22;100.00;91283.38;4978359;28;20210;-74
2022/01/09 05:07:12;;;;;;;6.13;4.67;;;;;;;4.12;100.00;91277.91;4978161;28;20577;-74
2022/01/09 05:09:39;;;;;;;6.50;4.20;;;;;;;3.97;100.00;91284.34;4978094;28;20479;-74
2022/01/09 05:12:09;;;;;;;4.00;3.60;;;;;;;3.93;100.00;91272.88;4977534;28;20206;-74
2022/01/09 05:14:36;;;;;;;5.47;3.87;;;;;;;3.97;100.00;91284.34;4977739;28;20559;-74
2022/01/09 05:17:04;;;;;;;4.70;4.40;;;;;;;3.95;100.00;91287.78;4978734;28;20567;-74
2022/01/09 05:19:33;;;;;;;4.27;3.30;;;;;;;3.86;100.00;91265.66;4978066;28;20486;-74
2022/01/09 05:22:01;;;;;;;5.67;4.80;;;;;;;3.97;100.00;91273.53;4978015;28;20302;-74
2022/01/09 05:24:29;;;;;;;7.20;5.77;;;;;;;4.04;100.00;91277.44;4977726;28;20230;-74
2022/01/09 05:26:56;;;;;;;6.43;4.43;;;;;;;4.11;100.00;91277.09;4977617;28;20519;-74
2022/01/09 05:29:25;;;;;;;7.43;6.83;;;;;;;4.05;100.00;91276.56;4977903;28;20445;-74
2022/01/09 05:31:52;;;;;;;6.57;6.17;;;;;;;3.90;100.00;91267.16;4976641;28;20551;-74
2022/01/09 05:34:19;;;;;;;5.80;5.30;;;;;;;3.87;100.00;91279.78;4969728;28;20306;-74
2022/01/09 05:37:04;;;;;;;7.80;6.57;;;;;;;4.04;100.00;91274.94;4973502;28;20491;-75
2022/01/09 05:39:32;;;;;;;5.53;5.03;;;;;;;4.13;100.00;91269.56;4973199;28;21058;-73
2022/01/09 05:41:59;;;;;;;7.07;6.47;;;;;;;4.29;100.00;91285.56;4974763;28;20605;-74
2022/01/09 05:44:28;;;;;;;9.63;8.10;;;;;;;4.38;100.00;91275.19;4972205;28;20507;-73
2022/01/09 05:46:56;;;;;;;8.83;7.97;;;;;;;4.36;100.00;91259.44;4974784;28;20502;-73
2022/01/09 05:49:23;;;;;;;7.67;6.83;;;;;;;4.42;100.00;91280.88;4972037;28;20484;-73
2022/01/09 05:51:50;;;;;;;11.60;6.40;;;;;;;4.29;100.00;91264.75;4973485;28;20461;-73
2022/01/09 05:54:18;;;;;;;6.47;5.87;;;;;;;4.12;100.00;91275.41;4969177;28;20239;-73
2022/01/09 05:56:45;;;;;;;7.53;4.70;;;;;;;4.07;100.00;91263.13;4967318;28;20203;-73
2022/01/09 05:59:12;;;;;;;5.27;4.97;;;;;;;4.02;100.00;91271.69;4965851;28;20251;-72
2022/01/09 06:01:41;;;;;;;5.37;5.07;;;;;;;3.90;100.00;91272.16;4968532;28;20561;-73
2022/01/09 06:04:08;;;;;;;5.83;5.37;;;;;;;3.91;100.00;91257.13;4968588;28;20575;-73
2022/01/09 06:06:35;;;;;;;4.70;4.40;;;;;;;4.05;100.00;91279.06;4969001;28;20581;-73
2022/01/09 06:09:03;;;;;;;11.93;8.63;;;;;;;4.05;100.00;91264.88;4972961;28;20204;-74
2022/01/09 06:11:30;;;;;;;9.50;7.57;;;;;;;4.00;100.00;91276.72;4974792;28;20582;-75
2022/01/09 06:13:58;;;;;;;9.20;5.97;;;;;;;3.97;100.00;91266.06;4971882;28;20518;-74
2022/01/09 06:16:25;;;;;;;14.43;7.63;;;;;;;4.05;100.00;91279.06;4969203;28;20200;-75
2022/01/09 06:18:53;;;;;;;12.23;8.33;;;;;;;3.92;100.00;91271.25;4971395;28;20542;-75
2022/01/09 06:21:21;;;;;;;7.70;7.10;;;;;;;4.01;100.00;91280.84;4974874;28;20592;-74
2022/01/09 06:23:48;;;;;;;5.93;5.43;;;;;;;3.88;100.00;91272.25;4974182;28;20588;-75
2022/01/09 06:26:17;;;;;;;6.67;6.17;;;;;;;3.82;100.00;91267.47;4971855;28;20591;-74
2022/01/09 06:28:44;;;;;;;11.10;7.43;;;;;;;3.95;100.00;91275.28;4972359;28;20238;-75
2022/01/09 06:31:12;;;;;;;9.93;8.40;;;;;;;3.90;100.00;91275.47;4971792;28;20561;-74
2022/01/09 06:33:39;;;;;;;8.43;7.40;;;;;;;3.84;100.00;91272.41;4972237;28;20566;-74
2022/01/09 06:36:08;;;;;;;10.60;9.47;;;;;;;3.85;100.00;91276.53;4972108;28;20596;-74
2022/01/09 06:38:37;;;;;;;11.73;7.13;;;;;;;3.89;100.00;91276.34;4968575;28;20234;-73
2022/01/09 06:41:04;;;;;;;8.10;6.90;;;;;;;3.72;100.00;91263.69;4973948;28;20486;-74
2022/01/09 06:43:32;;;;;;;9.50;6.50;;;;;;;3.70;100.00;91265.47;4965011;28;20473;-75
2022/01/09 06:45:59;;;;;;;6.03;5.23;;;;;;;3.67;100.00;91268.88;4965106;28;21603;-74
2022/01/09 06:48:26;;;;;;;13.10;7.43;;;;;;;3.77;100.00;91263.53;4968650;28;20458;-75
2022/01/09 06:50:53;;;;;;;6.00;5.50;;;;;;;3.76;100.00;91270.22;4960578;28;20305;-75
2022/01/09 06:53:22;;;;;;;5.93;5.53;;;;;;;3.71;100.00;91249.59;4971594;28;20203;-74
2022/01/09 06:55:49;;;;;;;6.17;5.87;;;;;;;3.87;100.00;91243.13;4973487;28;20461;-73
2022/01/09 06:58:18;;;;;;;15.07;7.47;;;;;;;4.02;100.00;91251.69;4969275;28;20608;-73
2022/01/09 07:00:47;;;;;;;10.73;6.70;;;;;;;3.82;100.00;91240.00;4969620;28;20473;-74
2022/01/09 07:03:14;;;;;;;16.30;7.37;;;;;;;3.87;100.00;91243.13;4972058;28;20557;-73
2022/01/09 07:05:41;;;;;;;8.00;7.30;;;;;;;4.01;100.00;91265.03;4968507;28;20484;-74
2022/01/09 07:08:08;;;;;;;9.50;6.37;;;;;;;4.08;100.00;91259.75;4971786;28;20563;-74
2022/01/09 07:10:37;;;;;;;6.77;6.27;;;;;;;4.08;100.00;91257.25;4971278;28;20199;-74
2022/01/09 07:13:05;;;;;;;9.47;7.17;;;;;;;4.20;100.00;91257.63;4969682;28;20572;-74
2022/01/09 07:15:32;;;;;;;16.70;8.37;;;;;;;4.27;100.00;91254.00;4972262;28;20238;-74
2022/01/09 07:18:00;;;;;;;7.13;6.50;;;;;;;4.29;100.00;91258.06;4969248;28;20479;-74
2022/01/09 07:20:29;;;;;;;15.67;6.53;;;;;;;4.12;100.00;91255.44;4967531;28;20576;-74
2022/01/09 07:22:56;;;;;;;8.40;7.67;;;;;;;4.03;100.00;91251.63;4971606;28;20552;-75
2022/01/09 07:25:23;;;;;;;13.67;9.93;;;;;;;3.86;100.00;91226.50;4971120;28;20200;-74
2022/01/09 07:27:52;;;;;;;8.63;7.87;;;;;;;4.13;100.00;91247.06;4972049;28;20512;-74
2022/01/09 07:30:19;;;;;;;7.33;6.47;;;;;;;4.07;100.00;91250.63;4972717;28;20588;-74
2022/01/09 07:32:46;;;;;;;8.10;5.73;;;;;;;4.08;100.00;91254.75;4974940;28;20568;-75
2022/01/09 07:35:14;;;;;;;10.87;8.57;;;;;;;4.05;100.00;91242.41;4972871;28;20220;-75
2022/01/09 07:37:41;;;;;;;8.33;7.50;;;;;;;4.11;100.00;91252.13;4972394;28;20559;-75
2022/01/09 07:40:09;;;;;;;9.50;8.43;;;;;;;4.15;100.00;91253.63;4970397;28;20519;-74
2022/01/09 07:42:36;;;;;;;9.73;7.07;;;;;;;4.12;100.00;91250.44;4971743;28;20471;-75
2022/01/09 07:45:07;;;;;;;6.90;4.90;;;;;;;4.10;100.00;91240.53;4971445;28;20218;-74
2022/01/09 07:47:34;;;;;;;6.93;6.53;;;;;;;4.05;100.00;91244.09;4971742;28;20195;-73
2022/01/09 07:50:01;;;;;;;3.97;3.67;;;;;;;4.21;100.00;91257.56;4968333;28;20589;-74
2022/01/09 07:52:29;;;;;;;11.30;8.23;;;;;;;4.29;100.00;91258.06;4967411;28;20573;-74
2022/01/09 07:54:56;;;;;;;10.77;6.13;;;;;;;4.18;100.00;91223.50;4975030;28;20584;-74
2022/01/09 07:57:23;;;;;;;9.60;5.67;;;;;;;4.38;100.00;91245.19;4974932;28;20466;-74
2022/01/09 07:59:50;;;;;;;4.90;4.50;;;;;;;4.13;100.00;91257.88;4975941;28;20564;-74
2022/01/09 08:02:19;;;;;;;12.67;7.77;;;;;;;4.21;100.00;91252.56;4974654;28;20588;-76
2022/01/09 08:04:46;;;;;;;6.17;5.57;;;;;;;4.25;100.00;91245.75;4974055;28;20568;-76
2022/01/09 08:07:13;;;;;;;7.07;3.87;;;;;;;4.19;100.00;91244.31;4975136;28;20469;-76
2022/01/09 08:09:42;;;;;;;12.17;7.80;;;;;;;4.08;100.00;91232.28;4975926;28;20583;-75
2022/01/09 08:12:10;;;;;;;7.93;7.13;;;;;;;3.91;100.00;91202.16;4975719;28;20588;-75
2022/01/09 08:14:38;;;;;;;7.50;6.90;;;;;;;4.08;100.00;91221.47;4973503;28;20504;-74
2022/01/09 08:17:05;;;;;;;6.80;5.93;;;;;;;4.05;100.00;91236.59;4975677;28;20561;-75
2022/01/09 08:19:35;;;;;;;6.53;6.03;;;;;;;3.98;100.00;91215.22;4976015;28;20208;-76
2022/01/09 08:22:03;;;;;;;12.70;9.00;;;;;;;4.11;100.00;91217.13;4976728;28;20568;-76
2022/01/09 08:24:30;;;;;;;6.40;5.23;;;;;;;4.05;100.00;91222.41;4971018;28;20678;-77
2022/01/09 08:26:57;;;;;;;4.57;4.03;;;;;;;4.18;100.00;91210.19;4973742;28;20256;-75
2022/01/09 08:29:25;;;;;;;4.30;3.67;;;;;;;4.23;100.00;91210.00;4976389;28;20533;-74
2022/01/09 08:31:52;;;;;;;3.27;2.90;;;;;;;4.11;100.00;91214.63;4973813;28;20239;-74
2022/01/09 08:34:20;;;;;;;2.83;2.63;;;;;;;3.95;100.00;91187.84;4971768;28;20511;-75
2022/01/09 08:36:49;;;;;;;4.50;4.20;;;;;;;4.21;100.00;91199.28;4973420;28;20587;-75
2022/01/09 08:39:17;;;;;;;29.67;16.33;;;;;;;4.18;100.00;91193.53;4973245;28;20600;-74
2022/01/09 08:41:44;;;;;;;16.33;10.27;;;;;;;4.25;100.00;91194.09;4968025;28;20474;-75
2022/01/09 08:44:11;;;;;;;9.80;9.00;;;;;;;4.31;100.00;91190.50;4974855;28;20550;-74
2022/01/09 08:46:39;;;;;;;89.10;37.90;;;;;;;4.38;100.00;91184.38;4970481;28;20502;-76
2022/01/09 08:49:07;;;;;;;8.87;7.97;;;;;;;4.38;100.00;91200.19;4974376;28;20203;-76
2022/01/09 08:51:34;;;;;;;49.47;27.97;;;;;;;4.44;100.00;91199.94;4973686;28;20603;-75
2022/01/09 08:54:02;;;;;;;28.50;16.57;;;;;;;4.43;100.00;91197.50;4975564;28;20466;-74
2022/01/09 08:56:32;;;;;;;17.77;9.10;;;;;;;4.31;100.00;91193.84;4968813;28;20541;-75
2022/01/09 08:59:01;;;;;;;7.33;6.87;;;;;;;4.32;100.00;91192.97;4975161;28;20480;-75
2022/01/09 09:01:29;;;;;;;9.63;7.37;;;;;;;4.35;100.00;91207.81;4973075;28;20553;-74
2022/01/09 09:03:56;;;;;;;9.20;7.97;;;;;;;4.29;100.00;91190.56;4973138;28;20223;-74
2022/01/09 09:06:23;;;;;;;33.90;14.67;;;;;;;4.43;100.00;91195.81;4975253;28;20548;-75
2022/01/09 09:08:50;;;;;;;12.80;9.40;;;;;;;4.44;100.00;91191.63;4975387;28;20491;-75
2022/01/09 09:11:19;;;;;;;9.00;6.83;;;;;;;4.40;100.00;91198.44;4974603;28;20627;-74
2022/01/09 09:13:46;;;;;;;6.93;5.87;;;;;;;4.49;100.00;91198.06;4971310;28;20554;-74
2022/01/09 09:16:13;;;;;;;48.83;23.20;;;;;;;4.38;100.00;91186.88;4974029;28;20515;-74
2022/01/09 09:18:40;;;;;;;15.77;11.53;;;;;;;4.42;100.00;91193.38;4975836;28;20476;-73
2022/01/09 09:21:07;;;;;;;13.93;8.63;;;;;;;4.43;100.00;91178.31;4974977;28;20493;-75
2022/01/09 09:23:35;;;;;;;19.53;11.40;;;;;;;4.56;100.00;91189.38;4972902;28;20557;-75
2022/01/09 09:26:02;;;;;;;9.90;8.60;;;;;;;4.70;100.00;91191.31;4976501;28;20491;-74
2022/01/09 09:28:31;;;;;;;17.00;8.00;;;;;;;4.66;100.00;91179.00;4974413;28;20592;-75
2022/01/09 09:30:58;;;;;;;14.10;9.97;;;;;;;4.81;100.00;91173.31;4971136;28;20535;-74
2022/01/09 09:33:25;;;;;;;19.47;10.23;;;;;;;4.95;100.00;91171.03;4975232;28;20587;-74
2022/01/09 09:35:53;;;;;;;23.77;14.10;;;;;;;4.96;100.00;91153.41;4974499;28;20616;-74
2022/01/09 09:38:20;;;;;;;20.17;9.93;;;;;;;5.17;100.00;91166.66;4975991;28;20682;-74
2022/01/09 09:40:47;;;;;;;22.83;11.97;;;;;;;5.29;100.00;91160.28;4976210;28;20200;-74
2022/01/09 09:43:16;;;;;;;38.67;21.30;;;;;;;5.48;100.00;91155.22;4973870;28;20560;-74
2022/01/09 09:45:45;;;;;;;36.77;19.37;;;;;;;5.65;100.00;91160.22;4971676;28;20556;-73
2022/01/09 09:48:12;;;;;;;70.10;31.13;;;;;;;5.81;100.00;91161.94;4971704;28;20576;-74
2022/01/09 09:50:40;;;;;;;38.20;15.13;;;;;;;6.04;100.00;91155.81;4975403;28;20200;-75
2022/01/09 09:53:07;;;;;;;23.57;16.17;;;;;;;6.15;100.00;91146.06;4973149;28;20571;-74
2022/01/09 09:55:34;;;;;;;15.13;10.17;;;;;;;6.32;100.00;91144.41;4973802;28;20700;-75
2022/01/09 09:58:01;;;;;;;16.37;11.63;;;;;;;6.50;100.00;91144.31;4972075;28;20223;-74
2022/01/09 10:00:29;;;;;;;17.90;12.30;;;;;;;6.57;100.00;91148.13;4969269;28;20583;-73
2022/01/09 10:03:00;;;;;;;10.57;8.67;;;;;;;6.63;100.00;91144.50;4962330;28;20527;-73
2022/01/09 10:05:28;;;;;;;12.83;8.67;;;;;;;6.56;100.00;91143.19;4960782;28;20561;-73
2022/01/09 10:08:05;;;;;;;10.07;9.10;;;;;;;6.54;100.00;91127.38;4963678;28;20624;-74
2022/01/09 10:10:34;;;;;;;5.87;5.23;;;;;;;6.55;100.00;91122.31;4965929;28;20529;-73
2022/01/09 10:13:10;;;;;;;6.13;5.43;;;;;;;6.75;100.00;91133.00;4966230;28;20701;-74
2022/01/09 10:15:50;;;;;;;6.93;5.57;;;;;;;6.93;99.45;91130.31;4964805;28;20626;-75
2022/01/09 10:18:41;;;;;;;6.00;5.03;;;;;;;6.96;98.29;91132.69;4970404;28;20583;-73
2022/01/09 10:21:10;;;;;;;7.30;5.67;;;;;;;7.00;98.63;91111.53;4969421;28;20515;-73
2022/01/09 10:23:57;;;;;;;6.93;6.30;;;;;;;7.11;97.50;91095.91;4964554;28;20457;-73
2022/01/09 10:26:25;;;;;;;7.70;5.50;;;;;;;7.73;97.58;91120.06;4966519;28;20214;-73
2022/01/09 10:28:53;;;;;;;15.37;11.37;;;;;;;8.05;93.86;91128.31;4968318;28;20594;-74
2022/01/09 10:31:21;;;;;;;12.27;8.80;;;;;;;8.39;92.79;91123.88;4969079;28;20591;-75
2022/01/09 10:34:03;;;;;;;13.33;7.83;;;;;;;9.00;90.54;91131.94;4972346;28;20618;-75
2022/01/09 10:36:41;;;;;;;8.43;7.50;;;;;;;9.83;87.52;91135.97;4971126;28;21010;-75
2022/01/09 10:39:12;;;;;;;10.77;8.30;;;;;;;10.78;82.10;91151.59;4971398;28;20192;-73
2022/01/09 10:41:47;;;;;;;7.37;6.13;;;;;;;11.90;78.50;91142.97;4970394;28;20487;-75
2022/01/09 10:44:15;;;;;;;17.73;10.00;;;;;;;12.58;74.33;91151.56;4965028;28;20624;-73
2022/01/09 10:46:54;;;;;;;13.37;8.93;;;;;;;12.83;71.44;91148.81;4967224;28;20582;-75
2022/01/09 10:49:23;;;;;;;6.70;5.43;;;;;;;12.78;71.63;91131.44;4970461;28;20208;-75
2022/01/09 10:51:51;;;;;;;6.20;4.60;;;;;;;12.50;71.53;91138.66;4970679;28;20627;-75
2022/01/09 10:54:32;;;;;;;22.47;11.80;;;;;;;12.10;72.57;91115.44;4971205;28;20551;-75
2022/01/09 10:57:17;;;;;;;9.67;7.87;;;;;;;11.36;75.61;91094.53;4974822;28;20454;-75
2022/01/09 10:59:45;;;;;;;32.03;14.37;;;;;;;10.96;77.52;91083.06;4969401;28;20608;-75
2022/01/09 11:02:12;;;;;;;11.97;7.43;;;;;;;10.59;79.62;91075.44;4973044;28;20588;-74
2022/01/09 11:04:42;;;;;;;22.20;11.50;;;;;;;10.35;81.02;91064.47;4970129;28;20586;-75
2022/01/09 11:07:10;;;;;;;55.63;21.33;;;;;;;10.19;81.62;91049.56;4966054;28;20648;-75
2022/01/09 11:09:38;;;;;;;48.13;19.67;;;;;;;9.97;82.52;91039.22;4967080;28;20548;-76
2022/01/09 11:12:07;;;;;;;21.07;10.83;;;;;;;9.71;84.30;91048.47;4966223;28;20496;-75
2022/01/09 11:14:40;;;;;;;12.73;8.47;;;;;;;9.39;86.34;91022.00;4963980;28;20199;-75
2022/01/09 11:17:08;;;;;;;17.53;9.80;;;;;;;9.29;87.83;91036.13;4964967;28;20581;-74
2022/01/09 11:19:36;;;;;;;19.67;9.87;;;;;;;9.11;88.13;91020.44;4970145;28;20564;-74
2022/01/09 11:22:07;;;;;;;22.20;11.40;;;;;;;9.20;89.47;91016.50;4972733;28;20560;-74
2022/01/09 11:24:50;;;;;;;17.10;10.00;;;;;;;9.31;89.36;91026.72;4971790;28;20956;-74
2022/01/09 11:27:27;;;;;;;10.17;6.50;;;;;;;9.35;88.47;90998.72;4974387;28;20572;-74
2022/01/09 11:30:04;;;;;;;11.23;7.63;;;;;;;9.87;87.73;91015.50;4975606;28;20559;-74
2022/01/09 11:32:43;;;;;;;14.37;7.07;;;;;;;10.50;84.81;91029.81;4979385;28;20594;-75
2022/01/09 11:35:18;;;;;;;5.13;4.70;;;;;;;11.57;79.34;91051.75;4977332;28;20246;-74